Aeroporto :
LOGIN :

Iscrizione | Disclaimer

   EN    FR    IT 

 










Sommario :    VFR   VFR Marginale   IFR   IFR Intensivo   IFR Molto Intensivo
Visibilità : 
Base nubi : 
>= 8 km
>= 3000ft
5 / 8 km
1000 / 3000 ft
1500m / 5 km
500 / 1000 ft
800 / 1500m
200 / 500 ft
< 800m
< 200 ft
Simboli :   Temporali  Nebbia  Neve Forte  Precipitazioni Forti  Vento > 20 kt
SIGMETs :   Varie  Temporali  Ghiacco  Turbolenza  Onda orograficha  Ceneri Vulcaniche






- Altitudine del aeroporto : 670 ft
- Codice IATA : MSQ


UMMS - Minsk - 2

ULTIMO METAR :
  • 211430Z 21002MPS 180V240 CAVOK 18/11 Q1019 R88/CLRD// NOSIG

METARs OBSOLETI :
  • 211400Z 23002MPS CAVOK 19/12 Q1019 R88/D NOSIG
  • 211330Z 23003MPS 200V260 CAVOK 19/11 Q1019 R88/CLRD// NOSIG
  • 211300Z 21002MPS 190V250 CAVOK 19/11 Q1019 R88/D NOSIG
  • 211230Z 22002MPS 190V250 CAVOK 19/11 Q1019 R88/CLRD// NOSIG
  • 211200Z 24003MPS 200V270 CAVOK 19/11 Q1019 R88/D NOSIG
  • 211130Z 20003MPS CAVOK 19/12 Q1019 R88/D NOSIG

TAF TAF UMMS
Valido dal 21 a 12 ore il 22 a 12 ore UTC


211102Z 2112/2212 VRB02MPS 9999 SCT030
BECMG 2118/2119 4000 BR SCT003
TEMPO 2119/2207 0300 FG VV002
BECMG 2207/2208 23005G10MPS 9999 NSW SCT030



MetMap, La meteo Aeronautica in un colpo d'occhio ! - Copyright ORBIFLY Dicembre 2007 - Disclaimer

ORBIFLY MET'MAP TEAM :

Programmazione e sviluppo : Alexandra Zaïnal
Concezione e sviluppo : Baudouin d'Aumeries
Co-Programmazione e sviluppo : Marc-Olivier Méhu
Supporto tecnico e logistico : Manuel Goepfert
Aiuto per la traduzione : Arnaldo La Scala

Contatto : metmap@orbifly.com




FONTI E CREDITI :

   NOAA